Time;durP1;ratioP1;P1;durP2;ratioP2;P2;SDS_P1;SDS_P2;PMS_P1;PMS_P2;Temp;Humidity;BMP_temperature;BMP_pressure;BME280_temperature;BME280_humidity;BME280_pressure;Samples;Min_cycle;Max_cycle;Signal;HPM_P1;HPM_P2
2021/12/11 00:00:14;;;;;;;;;;;;;;;;;;;;;
2021/12/11 00:03:36;;;;;;;12.25;8.05;;;1.60;94.30;;;;;;4793489;29;20023;-93
2021/12/11 00:06:57;;;;;;;;;;;;;;;;;;;;;
2021/12/11 00:09:48;;;;;;;;;;;;;;;;;;;;;
2021/12/11 00:15:19;;;;;;;13.48;8.85;;;1.50;94.30;;;;;;4752591;30;20505;-94
2021/12/11 00:21:58;;;;;;;;;;;;;;;;;;;;;
2021/12/11 00:25:11;;;;;;;;;;;;;;;;;;;;;
2021/12/11 00:27:59;;;;;;;11.88;7.75;;;1.50;94.30;;;;;;4790789;30;20039;-94
2021/12/11 00:30:39;;;;;;;13.48;7.70;;;1.50;94.30;;;;;;4768295;30;20044;-94
2021/12/11 00:33:33;;;;;;;12.45;8.15;;;1.50;94.30;;;;;;4759783;30;20122;-94
2021/12/11 00:36:36;;;;;;;;;;;;;;;;;;;;;
2021/12/11 00:43:25;;;;;;;;;;;;;;;;;;;;;
2021/12/11 00:46:22;;;;;;;15.63;8.70;;;1.30;94.30;;;;;;4792907;30;20137;-95
2021/12/11 00:53:32;;;;;;;;;;;;;;;;;;;;;
2021/12/11 00:59:36;;;;;;;13.85;9.10;;;1.20;94.30;;;;;;4786358;30;20047;-94
2021/12/11 01:02:41;;;;;;;14.68;8.35;;;1.20;94.30;;;;;;4768885;30;20031;-94
2021/12/11 01:09:02;;;;;;;;;;;;;;;;;;;;;
2021/12/11 01:15:06;;;;;;;16.08;9.77;;;1.20;94.40;;;;;;4790596;30;20403;-94
2021/12/11 01:20:52;;;;;;;14.15;9.23;;;1.20;94.50;;;;;;4800647;29;20062;-93
2021/12/11 01:27:05;;;;;;;15.02;9.13;;;1.10;94.50;;;;;;4759412;30;20053;-92
2021/12/11 01:29:37;;;;;;;16.63;9.70;;;1.10;94.50;;;;;;4753700;30;20049;-94
2021/12/11 01:32:36;;;;;;;15.88;9.98;;;1.10;94.50;;;;;;4743305;30;20064;-93
2021/12/11 01:35:49;;;;;;;13.50;9.05;;;1.10;94.60;;;;;;4711114;30;20037;-93
2021/12/11 01:38:42;;;;;;;15.73;9.40;;;1.10;94.60;;;;;;4760692;30;20024;-93
2021/12/11 01:41:22;;;;;;;15.65;9.88;;;1.10;94.60;;;;;;4761972;30;20093;-95
2021/12/11 01:44:03;;;;;;;14.43;9.57;;;1.10;94.60;;;;;;4760781;30;20177;-93
2021/12/11 01:46:34;;;;;;;16.40;9.55;;;1.10;94.60;;;;;;4782323;30;20106;-94
2021/12/11 01:49:47;;;;;;;14.27;9.10;;;1.10;94.60;;;;;;4772060;30;20111;-94
2021/12/11 01:52:37;;;;;;;16.17;9.48;;;1.10;94.60;;;;;;4783387;30;20580;-94
2021/12/11 01:55:43;;;;;;;;;;;;;;;;;;;;;
2021/12/11 01:58:12;;;;;;;14.60;10.05;;;1.10;94.70;;;;;;4795105;30;20149;-93
2021/12/11 02:00:57;;;;;;;13.75;9.70;;;1.10;94.60;;;;;;4776114;30;20459;-93
2021/12/11 02:06:58;;;;;;;13.48;8.98;;;1.20;94.70;;;;;;4783838;30;20035;-93
2021/12/11 02:09:42;;;;;;;13.25;8.85;;;1.20;94.70;;;;;;4795546;30;20035;-94
2021/12/11 02:12:15;;;;;;;14.32;9.40;;;1.10;94.70;;;;;;4786156;30;20044;-94
2021/12/11 02:14:52;;;;;;;13.77;8.80;;;1.10;94.70;;;;;;4761956;30;20312;-93
2021/12/11 02:24:38;;;;;;;11.90;8.80;;;1.10;94.70;;;;;;4786312;30;20492;-95
2021/12/11 02:27:44;;;;;;;;;;;;;;;;;;;;;
2021/12/11 02:30:33;;;;;;;14.80;8.98;;;1.10;94.60;;;;;;4796642;30;20121;-95
2021/12/11 02:33:13;;;;;;;;;;;;;;;;;;;;;
2021/12/11 02:35:55;;;;;;;17.08;8.98;;;1.10;94.70;;;;;;4796212;30;20095;-94
2021/12/11 02:39:12;;;;;;;13.35;9.07;;;1.10;94.70;;;;;;4762855;30;20032;-95
2021/12/11 02:42:13;;;;;;;;;;;;;;;;;;;;;
2021/12/11 02:45:03;;;;;;;;;;;;;;;;;;;;;
2021/12/11 02:47:58;;;;;;;;;;;;;;;;;;;;;
2021/12/11 02:51:04;;;;;;;15.27;10.20;;;1.00;94.80;;;;;;4808102;29;20063;-93
2021/12/11 02:53:51;;;;;;;17.52;10.38;;;1.10;94.80;;;;;;4795010;30;20043;-94
2021/12/11 02:56:36;;;;;;;;;;;;;;;;;;;;;
2021/12/11 02:59:24;;;;;;;15.93;10.88;;;1.00;94.80;;;;;;4796079;30;20091;-95
2021/12/11 03:02:31;;;;;;;;;;;;;;;;;;;;;
2021/12/11 03:05:15;;;;;;;17.48;10.55;;;1.00;94.80;;;;;;4785393;30;20114;-94
2021/12/11 03:08:15;;;;;;;16.92;11.27;;;1.00;94.80;;;;;;4765529;30;20043;-93
2021/12/11 03:11:01;;;;;;;;;;;;;;;;;;;;;
2021/12/11 03:13:39;;;;;;;;;;;;;;;;;;;;;
2021/12/11 03:16:27;;;;;;;18.90;11.55;;;1.00;94.80;;;;;;4795078;30;20419;-94
2021/12/11 03:19:37;;;;;;;18.70;11.53;;;1.00;94.80;;;;;;4778665;30;20465;-94
2021/12/11 03:25:32;;;;;;;19.45;12.45;;;0.90;94.70;;;;;;4771536;30;20063;-94
2021/12/11 03:28:11;;;;;;;;;;;;;;;;;;;;;
2021/12/11 03:34:15;;;;;;;16.67;11.40;;;1.00;94.80;;;;;;4756440;30;20040;-94
2021/12/11 03:37:04;;;;;;;16.57;12.00;;;1.00;94.80;;;;;;4760071;30;20027;-93
2021/12/11 03:39:46;;;;;;;20.67;12.43;;;1.00;94.90;;;;;;4760828;30;20076;-93
2021/12/11 03:42:43;;;;;;;16.10;11.10;;;1.00;94.90;;;;;;4761465;30;20031;-94
2021/12/11 03:45:39;;;;;;;18.90;11.88;;;1.00;94.90;;;;;;4750951;30;20075;-95
2021/12/11 03:48:36;;;;;;;17.90;11.10;;;1.10;95.00;;;;;;4765014;30;20039;-94
2021/12/11 03:51:38;;;;;;;;;;;;;;;;;;;;;
2021/12/11 03:54:44;;;;;;;19.83;11.70;;;1.10;95.00;;;;;;4776563;30;20083;-93
2021/12/11 03:57:28;;;;;;;17.02;11.95;;;1.10;95.00;;;;;;4726566;30;20036;-94
2021/12/11 04:00:11;;;;;;;;;;;;;;;;;;;;;
2021/12/11 04:03:03;;;;;;;19.70;12.52;;;1.10;95.00;;;;;;4748017;30;20084;-91
2021/12/11 04:08:43;;;;;;;20.63;12.95;;;1.10;95.00;;;;;;4783802;29;20024;-94
2021/12/11 04:11:46;;;;;;;19.83;12.48;;;1.10;95.00;;;;;;4770232;29;20047;-93
2021/12/11 04:14:21;;;;;;;18.83;11.82;;;1.10;95.00;;;;;;4755995;30;20050;-94
2021/12/11 04:17:03;;;;;;;18.85;12.55;;;1.10;95.00;;;;;;4761167;30;20031;-93
2021/12/11 04:19:41;;;;;;;17.85;12.00;;;1.00;95.00;;;;;;4746673;30;20135;-94
2021/12/11 04:22:13;;;;;;;19.05;12.60;;;1.00;95.00;;;;;;4759664;30;20051;-95
2021/12/11 04:24:56;;;;;;;17.55;12.43;;;1.00;95.00;;;;;;4760333;30;20031;-93
2021/12/11 04:27:42;;;;;;;;;;;;;;;;;;;;;
2021/12/11 04:30:29;;;;;;;16.25;11.60;;;1.00;94.90;;;;;;4776893;30;20095;-93
2021/12/11 04:33:08;;;;;;;20.25;12.65;;;1.00;95.00;;;;;;4760716;30;20044;-94
2021/12/11 04:35:45;;;;;;;21.13;12.55;;;1.00;95.00;;;;;;4759782;30;20453;-94
2021/12/11 04:38:22;;;;;;;17.92;12.25;;;1.00;94.90;;;;;;4759562;30;20031;-93
2021/12/11 04:41:38;;;;;;;17.80;11.23;;;1.00;94.90;;;;;;4759221;30;20036;-93
2021/12/11 04:44:24;;;;;;;17.83;11.75;;;1.00;95.00;;;;;;4776823;30;20039;-93
2021/12/11 04:47:00;;;;;;;18.33;12.00;;;0.90;94.90;;;;;;4763381;30;20028;-94
2021/12/11 04:49:56;;;;;;;17.25;11.07;;;0.90;95.00;;;;;;4763234;30;20042;-94
2021/12/11 05:05:07;;;;;;;21.65;12.60;;;1.10;95.20;;;;;;4779674;30;19939;-93
2021/12/11 05:07:55;;;;;;;16.02;11.57;;;1.10;95.20;;;;;;4764174;30;20143;-94
2021/12/11 05:11:01;;;;;;;22.00;11.73;;;1.10;95.20;;;;;;4751217;30;20032;-94
2021/12/11 05:13:42;;;;;;;;;;;;;;;;;;;;;
2021/12/11 05:16:31;;;;;;;18.83;12.68;;;1.20;95.30;;;;;;4780827;30;20119;-94
2021/12/11 05:19:15;;;;;;;20.58;12.82;;;1.20;95.40;;;;;;4755735;30;20047;-95
2021/12/11 05:22:03;;;;;;;;;;;;;;;;;;;;;
2021/12/11 05:24:57;;;;;;;;;;;;;;;;;;;;;
2021/12/11 05:27:47;;;;;;;19.35;12.02;;;1.40;95.50;;;;;;4814086;29;20028;-93
2021/12/11 05:31:04;;;;;;;18.95;12.35;;;1.40;95.60;;;;;;4796547;29;20042;-94
2021/12/11 05:33:42;;;;;;;19.35;11.60;;;1.50;95.70;;;;;;4792408;29;20476;-95
2021/12/11 05:36:10;;;;;;;19.58;11.55;;;1.50;95.70;;;;;;4781363;30;20454;-94
2021/12/11 05:39:09;;;;;;;;;;;;;;;;;;;;;
2021/12/11 05:42:01;;;;;;;20.48;12.48;;;1.70;95.70;;;;;;4781329;30;20189;-93
2021/12/11 05:45:15;;;;;;;20.63;13.43;;;1.70;95.70;;;;;;4755012;30;20193;-94
2021/12/11 05:48:00;;;;;;;;;;;;;;;;;;;;;
2021/12/11 05:50:45;;;;;;;18.20;11.80;;;1.80;95.80;;;;;;4777991;30;20095;-95
2021/12/11 05:53:36;;;;;;;22.42;12.95;;;1.80;95.80;;;;;;4761171;30;20027;-93
2021/12/11 05:56:16;;;;;;;22.20;13.25;;;1.90;95.90;;;;;;4776730;30;20470;-95
2021/12/11 06:01:46;;;;;;;18.77;13.25;;;1.90;95.90;;;;;;4777905;30;20046;-95
2021/12/11 06:04:46;;;;;;;20.15;12.80;;;2.00;95.90;;;;;;4761627;30;20458;-93
2021/12/11 06:10:29;;;;;;;22.55;13.77;;;2.00;95.90;;;;;;4753151;30;20039;-94
2021/12/11 06:13:16;;;;;;;;;;;;;;;;;;;;;
2021/12/11 06:15:51;;;;;;;21.63;13.38;;;2.10;96.00;;;;;;4778126;30;20104;-96
2021/12/11 06:18:30;;;;;;;20.98;13.68;;;2.10;96.00;;;;;;4761918;30;20024;-93
2021/12/11 06:20:59;;;;;;;21.00;13.93;;;2.10;96.00;;;;;;4758064;30;20051;-94
2021/12/11 06:23:48;;;;;;;;;;;;;;;;;;;;;
2021/12/11 06:26:17;;;;;;;22.77;14.85;;;2.20;96.00;;;;;;4759424;30;20123;-94
2021/12/11 06:28:58;;;;;;;19.50;13.65;;;2.20;96.00;;;;;;4743617;30;20042;-93
2021/12/11 06:31:24;;;;;;;22.38;14.32;;;2.30;96.10;;;;;;4743626;30;20064;-93
2021/12/11 06:33:54;;;;;;;21.30;13.68;;;2.30;96.10;;;;;;4727675;30;20028;-93
2021/12/11 06:36:32;;;;;;;19.17;13.98;;;2.30;96.10;;;;;;4742304;30;20477;-92
2021/12/11 06:39:11;;;;;;;20.48;13.85;;;2.40;96.10;;;;;;4742152;30;20055;-91
2021/12/11 06:41:49;;;;;;;21.17;12.90;;;2.40;96.10;;;;;;4773670;30;20031;-94
2021/12/11 06:44:28;;;;;;;20.92;13.80;;;2.50;96.10;;;;;;4778551;30;20122;-92
2021/12/11 06:46:57;;;;;;;19.33;13.38;;;2.50;96.10;;;;;;4776079;29;20015;-92
2021/12/11 06:49:23;;;;;;;22.25;14.00;;;2.50;96.10;;;;;;4797057;29;20038;-94
2021/12/11 06:51:50;;;;;;;21.70;14.38;;;2.50;96.10;;;;;;4783176;29;20032;-91
2021/12/11 06:54:16;;;;;;;23.90;14.27;;;2.50;96.10;;;;;;4776815;30;20016;-93
2021/12/11 06:57:16;;;;;;;19.48;13.02;;;2.60;96.40;;;;;;4760274;30;20032;-93
2021/12/11 06:59:44;;;;;;;19.75;13.02;;;2.60;96.10;;;;;;4761379;30;20032;-94
2021/12/11 07:05:12;;;;;;;18.73;13.77;;;2.60;96.10;;;;;;4746159;30;20051;-94
2021/12/11 07:08:05;;;;;;;19.13;12.95;;;2.60;96.10;;;;;;4744178;30;20389;-95
2021/12/11 07:10:53;;;;;;;17.63;12.55;;;2.60;96.10;;;;;;4759224;30;20521;-95
2021/12/11 07:13:31;;;;;;;;;;;;;;;;;;;;;
2021/12/11 07:16:02;;;;;;;17.65;12.60;;;2.70;96.10;;;;;;4775540;30;20099;-95
2021/12/11 07:18:51;;;;;;;20.92;13.20;;;2.70;96.10;;;;;;4759638;30;20485;-94
2021/12/11 07:21:56;;;;;;;;;;;;;;;;;;;;;
2021/12/11 07:24:51;;;;;;;;;;;;;;;;;;;;;
2021/12/11 07:27:23;;;;;;;19.13;13.02;;;2.70;96.10;;;;;;4775830;30;20138;-94
2021/12/11 07:30:18;;;;;;;20.15;13.02;;;2.70;96.10;;;;;;4760612;30;20067;-95
2021/12/11 07:33:27;;;;;;;;;;;;;;;;;;;;;
2021/12/11 07:36:11;;;;;;;18.15;13.05;;;2.80;96.10;;;;;;4774528;29;20107;-93
2021/12/11 07:38:44;;;;;;;19.70;12.80;;;2.80;96.10;;;;;;4775590;30;20063;-92
2021/12/11 07:41:28;;;;;;;19.20;13.20;;;2.80;96.10;;;;;;4758942;30;20063;-92
2021/12/11 07:44:18;;;;;;;19.20;13.50;;;2.80;96.10;;;;;;4770332;30;20059;-91
2021/12/11 07:46:54;;;;;;;18.45;13.10;;;2.80;96.10;;;;;;4748962;30;20052;-93
2021/12/11 07:49:51;;;;;;;24.95;14.93;;;2.80;96.10;;;;;;4758615;30;20051;-91
2021/12/11 07:52:19;;;;;;;22.38;14.32;;;2.80;96.10;;;;;;4757679;30;20047;-92
2021/12/11 07:54:50;;;;;;;25.27;17.38;;;2.90;96.10;;;;;;4775915;30;20035;-92
2021/12/11 07:58:02;;;;;;;24.00;15.25;;;2.80;96.10;;;;;;4745080;30;20044;-92
2021/12/11 08:04:00;;;;;;;21.00;15.00;;;2.90;96.30;;;;;;4769512;30;20365;-92
2021/12/11 08:06:38;;;;;;;20.50;14.38;;;2.90;96.30;;;;;;4748314;30;20144;-93
2021/12/11 08:09:19;;;;;;;20.75;14.48;;;2.90;96.30;;;;;;4760416;30;20044;-93
2021/12/11 08:12:18;;;;;;;26.00;16.55;;;2.90;96.30;;;;;;4776629;30;20027;-92
2021/12/11 08:14:46;;;;;;;23.17;15.23;;;2.90;96.30;;;;;;4766407;29;20051;-91
2021/12/11 08:17:50;;;;;;;;;;;;;;;;;;;;;
2021/12/11 08:20:20;;;;;;;25.80;16.95;;;2.90;96.30;;;;;;4782945;30;20103;-91
2021/12/11 08:22:52;;;;;;;27.27;17.77;;;3.00;96.40;;;;;;4762761;30;20093;-90
2021/12/11 08:25:41;;;;;;;27.13;17.98;;;3.00;96.40;;;;;;4764113;30;20052;-92
2021/12/11 08:28:39;;;;;;;;;;;;;;;;;;;;;
2021/12/11 08:31:21;;;;;;;;;;;;;;;;;;;;;
2021/12/11 08:34:11;;;;;;;22.45;14.98;;;3.10;96.40;;;;;;4777887;30;20066;-93
2021/12/11 08:36:43;;;;;;;23.58;16.70;;;3.10;96.40;;;;;;4761875;30;20059;-92
2021/12/11 08:39:29;;;;;;;24.38;16.23;;;3.10;96.40;;;;;;4761563;30;20028;-93
2021/12/11 08:42:14;;;;;;;21.58;15.10;;;3.10;96.40;;;;;;4784593;30;20035;-91
2021/12/11 08:45:22;;;;;;;21.35;14.35;;;3.10;96.70;;;;;;4748706;30;20032;-91
2021/12/11 08:47:55;;;;;;;21.30;14.77;;;3.10;96.40;;;;;;4760788;30;20028;-92
2021/12/11 08:50:39;;;;;;;19.65;14.23;;;3.10;96.40;;;;;;4761132;30;20078;-92
2021/12/11 08:53:34;;;;;;;23.70;15.15;;;3.20;96.40;;;;;;4776485;30;20043;-92
2021/12/11 08:56:06;;;;;;;21.05;14.88;;;3.20;96.40;;;;;;4777956;30;20036;-91
2021/12/11 08:58:45;;;;;;;;;;;;;;;;;;;;;
2021/12/11 09:01:24;;;;;;;23.25;15.18;;;3.30;96.40;;;;;;4795144;30;20099;-91
2021/12/11 09:04:22;;;;;;;26.02;17.48;;;3.30;96.40;;;;;;4779800;30;20112;-92
2021/12/11 09:13:49;;;;;;;22.75;15.63;;;3.40;96.40;;;;;;4769137;30;20092;-91
2021/12/11 09:17:25;;;;;;;;;;;;;;;;;;;;;
2021/12/11 09:20:36;;;;;;;22.05;14.88;;;3.40;96.40;;;;;;4748810;30;20128;-93
2021/12/11 09:23:38;;;;;;;;;;;;;;;;;;;;;
2021/12/11 09:33:38;;;;;;;;;;;;;;;;;;;;;
2021/12/11 09:36:34;;;;;;;26.83;18.25;;;3.60;96.30;;;;;;4650409;30;20058;-91
2021/12/11 09:39:26;;;;;;;26.17;16.65;;;3.60;96.30;;;;;;4706189;30;20089;-93
2021/12/11 09:42:07;;;;;;;;;;;;;;;;;;;;;
2021/12/11 09:44:50;;;;;;;;;;;;;;;;;;;;;
2021/12/11 09:47:51;;;;;;;20.65;14.82;;;3.70;96.40;;;;;;4705049;30;20590;-90
2021/12/11 09:50:50;;;;;;;21.27;14.68;;;3.80;96.40;;;;;;4684569;30;20072;-92
2021/12/11 09:53:42;;;;;;;22.83;14.98;;;3.80;96.40;;;;;;4687936;30;20057;-90
2021/12/11 09:56:18;;;;;;;23.70;15.40;;;3.90;96.40;;;;;;4694079;30;20029;-91
2021/12/11 09:59:13;;;;;;;21.50;15.45;;;3.90;96.50;;;;;;4726230;30;20051;-91
2021/12/11 10:02:21;;;;;;;;;;;;;;;;;;;;;
2021/12/11 10:05:18;;;;;;;21.45;14.70;;;4.00;96.60;;;;;;4733707;30;20136;-91
2021/12/11 10:08:13;;;;;;;21.58;14.30;;;4.00;96.60;;;;;;4779049;30;20035;-92
2021/12/11 10:10:55;;;;;;;21.08;14.48;;;4.00;96.60;;;;;;4769993;30;20508;-91
2021/12/11 10:13:32;;;;;;;18.45;13.90;;;4.10;96.60;;;;;;4760156;30;20119;-91
2021/12/11 10:16:04;;;;;;;19.30;13.43;;;4.10;96.80;;;;;;4745993;30;20036;-91
2021/12/11 10:19:03;;;;;;;20.70;14.10;;;4.10;96.50;;;;;;4760597;30;20031;-92
2021/12/11 10:25:08;;;;;;;21.10;14.18;;;4.20;96.50;;;;;;4793377;30;20537;-91
2021/12/11 10:28:28;;;;;;;;;;;;;;;;;;;;;
2021/12/11 10:31:35;;;;;;;24.58;16.90;;;4.20;96.50;;;;;;4780359;30;20048;-92
2021/12/11 10:34:29;;;;;;;;;;;;;;;;;;;;;
2021/12/11 10:37:12;;;;;;;21.67;16.05;;;4.30;96.50;;;;;;4774895;30;20052;-91
2021/12/11 10:40:36;;;;;;;23.50;15.50;;;4.40;96.50;;;;;;4759129;30;20071;-92
2021/12/11 10:43:02;;;;;;;;;;;;;;;;;;;;;
2021/12/11 10:45:38;;;;;;;22.60;15.93;;;4.40;96.40;;;;;;4792150;30;20146;-91
2021/12/11 10:48:37;;;;;;;24.75;17.73;;;4.50;96.50;;;;;;4762927;30;20047;-91
2021/12/11 10:54:31;;;;;;;28.33;18.13;;;4.50;96.50;;;;;;4769469;30;20032;-92
2021/12/11 10:57:30;;;;;;;26.75;17.05;;;4.60;96.50;;;;;;4745962;30;20047;-91
2021/12/11 11:03:02;;;;;;;27.27;18.15;;;4.60;96.60;;;;;;4787810;29;20032;-91
2021/12/11 11:05:32;;;;;;;28.00;18.73;;;4.60;96.60;;;;;;4764459;29;20036;-92
2021/12/11 11:08:16;;;;;;;25.10;17.17;;;4.60;96.60;;;;;;4779085;29;20104;-91
2021/12/11 11:10:51;;;;;;;24.90;16.55;;;4.60;96.60;;;;;;4775937;30;20131;-93
2021/12/11 11:16:52;;;;;;;;;;;;;;;;;;;;;
2021/12/11 11:19:55;;;;;;;;;;;;;;;;;;;;;
2021/12/11 11:22:40;;;;;;;;;;;;;;;;;;;;;
2021/12/11 11:36:30;;;;;;;;;;;;;;;;;;;;;
2021/12/11 11:39:38;;;;;;;;;;;;;;;;;;;;;
2021/12/11 11:45:54;;;;;;;;;;;;;;;;;;;;;
2021/12/11 11:48:28;;;;;;;26.67;18.75;;;4.70;96.90;;;;;;4757841;30;20095;-93
2021/12/11 11:51:51;;;;;;;29.40;19.95;;;4.80;96.90;;;;;;4742205;30;20036;-94
2021/12/11 11:54:50;;;;;;;24.73;17.45;;;4.70;96.90;;;;;;4735904;30;20036;-94
2021/12/11 11:58:10;;;;;;;;;;;;;;;;;;;;;
2021/12/11 12:04:31;;;;;;;26.48;17.90;;;4.80;97.20;;;;;;4761560;30;20287;-94
2021/12/11 12:07:25;;;;;;;28.05;18.83;;;4.80;96.90;;;;;;4747258;30;20042;-94
2021/12/11 12:10:32;;;;;;;28.38;19.30;;;4.90;96.90;;;;;;4742192;30;20051;-95
2021/12/11 12:13:22;;;;;;;31.45;19.45;;;4.90;96.90;;;;;;4704172;30;20056;-93
2021/12/11 12:16:31;;;;;;;;;;;;;;;;;;;;;
2021/12/11 12:19:07;;;;;;;;;;;;;;;;;;;;;
2021/12/11 12:22:12;;;;;;;30.70;20.55;;;4.90;96.90;;;;;;4758215;30;20052;-93
2021/12/11 12:25:22;;;;;;;27.23;18.35;;;4.90;96.90;;;;;;4763611;30;20060;-95
2021/12/11 12:31:13;;;;;;;28.75;18.05;;;4.90;97.00;;;;;;4782259;29;20031;-93
2021/12/11 12:37:36;;;;;;;25.83;18.10;;;5.00;97.00;;;;;;4804001;29;20070;-94
2021/12/11 12:47:05;;;;;;;;;;;;;;;;;;;;;
2021/12/11 13:04:07;;;;;;;;;;;;;;;;;;;;;
2021/12/11 13:07:30;;;;;;;;;;;;;;;;;;;;;
2021/12/11 13:27:29;;;;;;;;;;;;;;;;;;;;;
2021/12/11 13:30:55;;;;;;;;;;;;;;;;;;;;;
2021/12/11 13:40:21;;;;;;;;;;;;;;;;;;;;;
2021/12/11 13:43:44;;;;;;;;;;;;;;;;;;;;;
2021/12/11 13:50:08;;;;;;;;;;;5.40;97.10;;;;;;4754256;30;20035;-94
2021/12/11 13:53:03;;;;;;;;;;;;;;;;;;;;;
2021/12/11 13:56:12;;;;;;;29.27;17.63;;;5.40;97.00;;;;;;4736478;30;20110;-95
2021/12/11 13:58:57;;;;;;;31.25;17.83;;;5.40;97.00;;;;;;4753063;30;20070;-93
2021/12/11 14:02:39;;;;;;;27.38;16.88;;;5.50;97.10;;;;;;4763643;30;20032;-94
2021/12/11 14:05:51;;;;;;;;;;;;;;;;;;;;;
2021/12/11 14:09:05;;;;;;;;;;;;;;;;;;;;;
2021/12/11 14:12:09;;;;;;;;;;;;;;;;;;;;;
2021/12/11 14:18:46;;;;;;;;;;;;;;;;;;;;;
2021/12/11 14:21:16;;;;;;;;;;;5.60;97.10;;;;;;4759417;30;20095;-92
2021/12/11 14:24:05;;;;;;;;;;;;;;;;;;;;;
2021/12/11 14:26:48;;;;;;;29.42;17.90;;;5.60;97.00;;;;;;4768029;30;20131;-94
2021/12/11 14:36:45;;;;;;;26.10;17.42;;;5.60;97.10;;;;;;4653490;30;20130;-95
2021/12/11 14:43:15;;;;;;;;;;;;;;;;;;;;;
2021/12/11 14:46:03;;;;;;;;;;;;;;;;;;;;;
2021/12/11 14:49:12;;;;;;;33.05;21.00;;;5.70;97.00;;;;;;4687604;30;20109;-93
2021/12/11 14:52:33;;;;;;;;;;;;;;;;;;;;;
2021/12/11 14:55:48;;;;;;;;;;;;;;;;;;;;;
2021/12/11 14:59:15;;;;;;;32.13;19.77;;;5.70;96.90;;;;;;4686759;30;20050;-92
2021/12/11 15:02:39;;;;;;;30.05;19.38;;;5.60;96.90;;;;;;4685416;30;20057;-91
2021/12/11 15:05:44;;;;;;;;;;;;;;;;;;;;;
2021/12/11 15:08:53;;;;;;;34.78;21.77;;;5.60;96.90;;;;;;4756553;30;20552;-92
2021/12/11 15:11:52;;;;;;;33.17;21.42;;;5.60;96.90;;;;;;4715177;30;20083;-93
2021/12/11 15:14:50;;;;;;;39.58;23.83;;;5.60;96.90;;;;;;4742934;30;20043;-93
2021/12/11 15:18:09;;;;;;;;;;;;;;;;;;;;;
2021/12/11 15:21:28;;;;;;;;;;;;;;;;;;;;;
2021/12/11 15:31:55;;;;;;;;;;;;;;;;;;;;;
2021/12/11 15:34:55;;;;;;;;;;;;;;;;;;;;;
2021/12/11 15:38:02;;;;;;;;;;;;;;;;;;;;;
2021/12/11 15:41:16;;;;;;;;;;;;;;;;;;;;;
2021/12/11 15:44:27;;;;;;;27.38;17.88;;;5.60;96.90;;;;;;4740390;30;20035;-94
2021/12/11 15:47:11;;;;;;;;;;;;;;;;;;;;;
2021/12/11 15:49:54;;;;;;;31.42;19.38;;;5.60;97.00;;;;;;4776076;30;20126;-93
2021/12/11 15:53:22;;;;;;;;;;;;;;;;;;;;;
2021/12/11 15:56:22;;;;;;;;;;;;;;;;;;;;;
2021/12/11 15:59:16;;;;;;;29.92;18.48;;;5.60;97.00;;;;;;4786487;30;20122;-93
2021/12/11 16:02:11;;;;;;;31.90;19.98;;;5.60;97.00;;;;;;4771020;30;20077;-94
2021/12/11 16:08:48;;;;;;;;;;;;;;;;;;;;;
2021/12/11 16:12:10;;;;;;;24.98;16.73;;;5.60;97.10;;;;;;4756316;30;20047;-94
2021/12/11 16:15:22;;;;;;;;;;;;;;;;;;;;;
2021/12/11 16:18:22;;;;;;;27.33;17.02;;;5.50;97.10;;;;;;4746985;30;20115;-92
2021/12/11 16:21:38;;;;;;;24.60;17.60;;;5.60;97.10;;;;;;4752346;30;20051;-92
2021/12/11 16:24:25;;;;;;;24.92;16.73;;;5.50;97.10;;;;;;4773320;30;20074;-93
2021/12/11 16:30:41;;;;;;;;;;;;;;;;;;;;;
2021/12/11 16:34:01;;;;;;;23.50;16.88;;;5.50;97.10;;;;;;4737717;30;20051;-93
2021/12/11 16:36:47;;;;;;;;;;;;;;;;;;;;;
2021/12/11 16:40:00;;;;;;;25.08;17.00;;;5.50;97.10;;;;;;4774606;30;20114;-92
2021/12/11 16:50:20;;;;;;;23.27;16.10;;;5.50;97.20;;;;;;4770029;30;20044;-95
2021/12/11 16:52:57;;;;;;;20.38;14.57;;;5.50;97.20;;;;;;4791567;30;20455;-94
2021/12/11 16:56:13;;;;;;;;;;;;;;;;;;;;;
2021/12/11 16:59:25;;;;;;;21.08;15.18;;;5.50;97.20;;;;;;4808552;29;20051;-94
2021/12/11 17:02:25;;;;;;;21.35;15.15;;;5.50;97.20;;;;;;4748848;29;20048;-92
2021/12/11 17:05:24;;;;;;;;;;;;;;;;;;;;;
2021/12/11 17:11:42;;;;;;;19.33;13.90;;;5.40;97.10;;;;;;4753168;30;20071;-94
2021/12/11 17:20:47;;;;;;;18.85;12.98;;;5.30;96.90;;;;;;4758622;30;20099;-93
2021/12/11 17:29:55;;;;;;;;;;;;;;;;;;;;;
2021/12/11 17:38:51;;;;;;;;;;;;;;;;;;;;;
2021/12/11 17:45:08;;;;;;;;;;;;;;;;;;;;;
2021/12/11 17:54:09;;;;;;;22.38;14.98;;;4.90;96.80;;;;;;4743011;30;20485;-93
2021/12/11 18:00:42;;;;;;;20.55;13.10;;;4.90;96.80;;;;;;4737547;30;20092;-93
2021/12/11 18:10:14;;;;;;;18.55;12.05;;;4.90;96.80;;;;;;4762011;30;20126;-93
2021/12/11 18:16:51;;;;;;;;;;;;;;;;;;;;;
2021/12/11 18:33:15;;;;;;;;;;;;;;;;;;;;;
2021/12/11 18:39:39;;;;;;;10.20;5.82;;;5.00;96.90;;;;;;4669824;30;20139;-92
2021/12/11 18:42:46;;;;;;;10.32;6.68;;;5.10;96.90;;;;;;4703439;30;20041;-92
2021/12/11 18:49:45;;;;;;;12.80;6.13;;;5.20;97.00;;;;;;4703688;30;20101;-93
2021/12/11 19:02:46;;;;;;;12.77;7.40;;;5.30;96.90;;;;;;4765400;30;20578;-93
2021/12/11 19:05:45;;;;;;;17.10;8.57;;;5.40;97.00;;;;;;4713313;30;20124;-94
2021/12/11 19:08:49;;;;;;;14.07;8.45;;;5.40;97.00;;;;;;4737547;30;20047;-93
2021/12/11 19:11:54;;;;;;;15.35;9.25;;;5.50;97.00;;;;;;4759646;30;20109;-95
2021/12/11 19:18:19;;;;;;;;;;;5.50;97.00;;;;;;4739149;30;20059;-93
2021/12/11 19:28:04;;;;;;;16.85;9.13;;;5.60;97.00;;;;;;4716688;30;20473;-93
2021/12/11 19:31:15;;;;;;;;;;;;;;;;;;;;;
2021/12/11 19:38:08;;;;;;;;;;;;;;;;;;;;;
2021/12/11 19:51:07;;;;;;;;;;;;;;;;;;;;;
2021/12/11 20:13:45;;;;;;;;;;;;;;;;;;;;;
2021/12/11 21:18:09;;;;;;;20.40;13.07;;;5.20;96.80;;;;;;5259254;24;20063;-92
2021/12/11 21:24:59;;;;;;;;;;;;;;;;;;;;;
2021/12/11 21:33:21;;;;;;;;;;;;;;;;;;;;;
2021/12/11 21:37:01;;;;;;;;;;;;;;;;;;;;;
2021/12/11 21:39:56;;;;;;;;;;;;;;;;;;;;;
2021/12/11 21:42:49;;;;;;;25.98;14.02;;;5.30;96.90;;;;;;4770618;30;20117;-94
2021/12/11 21:45:42;;;;;;;22.45;13.35;;;5.30;96.90;;;;;;4758825;30;20412;-94
2021/12/11 21:51:54;;;;;;;;;;;;;;;;;;;;;
2021/12/11 21:57:27;;;;;;;21.33;13.15;;;5.30;96.90;;;;;;4823079;24;20417;-95
2021/12/11 22:00:54;;;;;;;20.52;13.05;;;5.30;96.90;;;;;;4749884;30;20040;-93
2021/12/11 22:04:01;;;;;;;22.42;13.02;;;5.30;96.90;;;;;;4772376;30;20040;-93
2021/12/11 22:07:10;;;;;;;24.15;12.52;;;5.30;96.90;;;;;;4754909;30;20132;-92
2021/12/11 22:13:04;;;;;;;22.77;12.98;;;5.30;96.90;;;;;;4754820;30;20052;-92
2021/12/11 22:27:19;;;;;;;;;;;;;;;;;;;;;
2021/12/11 22:33:13;;;;;;;20.65;11.88;;;5.40;96.90;;;;;;4992794;24;20048;-93
2021/12/11 22:36:25;;;;;;;21.25;12.43;;;5.40;96.90;;;;;;4751213;30;20035;-94
2021/12/11 22:39:45;;;;;;;;;;;;;;;;;;;;;
